Time;durP1;ratioP1;P1;durP2;ratioP2;P2;SDS_P1;SDS_P2;PMS_P1;PMS_P2;Temp;Humidity;BMP_temperature;BMP_pressure;BME280_temperature;BME280_humidity;BME280_pressure;Samples;Min_cycle;Max_cycle;Signal;HPM_P1;HPM_P2
2023/05/21 00:01:16;;;;;;;;;;;16.00;99.90;;;;;;5033014;28;19905;-45
2023/05/21 00:03:44;;;;;;;;;;;16.00;99.90;;;;;;5032693;28;20011;-47
2023/05/21 00:06:12;;;;;;;;;;;16.00;99.90;;;;;;5031942;28;19912;-47
2023/05/21 00:08:37;;;;;;;;;;;16.00;99.90;;;;;;5032673;28;19924;-45
2023/05/21 00:11:03;;;;;;;;;;;16.00;99.90;;;;;;5032546;28;19905;-47
2023/05/21 00:13:29;;;;;;;;;;;16.00;99.90;;;;;;5032318;28;19915;-44
2023/05/21 00:15:54;;;;;;;;;;;16.00;99.90;;;;;;5031996;28;19905;-47
2023/05/21 00:18:21;;;;;;;;;;;16.00;99.90;;;;;;5032423;28;19909;-44
2023/05/21 00:20:46;;;;;;;;;;;16.00;99.90;;;;;;5032287;28;19905;-44
2023/05/21 00:23:12;;;;;;;;;;;16.00;99.90;;;;;;5032182;28;19916;-46
2023/05/21 00:25:37;;;;;;;;;;;16.00;99.90;;;;;;5032441;28;19905;-47
2023/05/21 00:28:03;;;;;;;;;;;16.00;99.90;;;;;;5031830;28;19905;-47
2023/05/21 00:30:28;;;;;;;;;;;16.00;99.90;;;;;;5032363;28;19912;-44
2023/05/21 00:32:54;;;;;;;;;;;16.00;99.90;;;;;;5032080;28;20080;-44
2023/05/21 00:35:19;;;;;;;;;;;16.00;99.90;;;;;;5032118;28;20385;-44
2023/05/21 00:37:46;;;;;;;;;;;16.00;99.90;;;;;;5031576;28;20003;-44
2023/05/21 00:40:12;;;;;;;;;;;16.00;99.90;;;;;;5031912;28;19909;-44
2023/05/21 00:42:38;;;;;;;;;;;16.00;99.90;;;;;;5031515;28;19963;-44
2023/05/21 00:45:04;;;;;;;;;;;16.00;99.90;;;;;;5032004;28;19912;-44
2023/05/21 00:47:29;;;;;;;;;;;16.00;99.90;;;;;;5031380;28;19951;-44
2023/05/21 00:49:55;;;;;;;;;;;15.90;99.90;;;;;;5031705;28;19904;-44
2023/05/21 00:52:21;;;;;;;;;;;15.90;99.90;;;;;;5031322;28;19917;-44
2023/05/21 00:54:48;;;;;;;;;;;15.90;99.90;;;;;;5031852;28;19959;-44
2023/05/21 00:57:13;;;;;;;;;;;15.90;99.90;;;;;;5031265;28;19912;-44
2023/05/21 00:59:39;;;;;;;;;;;15.90;99.90;;;;;;5031717;28;19905;-44
2023/05/21 01:02:05;;;;;;;;;;;15.90;99.90;;;;;;5031472;28;20333;-44
2023/05/21 01:04:31;;;;;;;;;;;15.90;99.90;;;;;;5031479;28;19932;-44
2023/05/21 01:06:57;;;;;;;;;;;15.90;99.90;;;;;;5031229;28;20339;-44
2023/05/21 01:09:25;;;;;;;;;;;15.90;99.90;;;;;;5031549;28;19905;-44
2023/05/21 01:11:51;;;;;;;;;;;15.90;99.90;;;;;;5031540;28;19978;-46
2023/05/21 01:14:18;;;;;;;;;;;15.90;99.90;;;;;;5031710;28;19956;-44
2023/05/21 01:16:45;;;;;;;;;;;15.90;99.90;;;;;;5030994;28;19905;-44
2023/05/21 01:19:14;;;;;;;;;;;15.90;99.90;;;;;;5031365;28;19913;-44
2023/05/21 01:21:40;;;;;;;;;;;15.90;99.90;;;;;;5031310;28;19936;-45
2023/05/21 01:24:07;;;;;;;;;;;15.90;99.90;;;;;;5031490;28;19909;-44
2023/05/21 01:26:37;;;;;;;;;;;15.90;99.90;;;;;;5030962;28;19905;-43
2023/05/21 01:29:06;;;;;;;;;;;15.90;99.90;;;;;;5031281;28;20437;-44
2023/05/21 01:31:40;;;;;;;;;;;15.90;99.90;;;;;;5031206;28;19905;-44
2023/05/21 01:34:09;;;;;;;;;;;15.90;99.90;;;;;;5031468;28;19948;-44
2023/05/21 01:36:39;;;;;;;;;;;15.90;99.90;;;;;;5030897;28;20255;-44
2023/05/21 01:39:22;;;;;;;;;;;15.90;99.90;;;;;;5031376;28;19911;-44
2023/05/21 01:44:16;;;;;;;;;;;15.90;99.90;;;;;;5053828;22;19931;-40
2023/05/21 01:46:42;;;;;;;;;;;15.90;99.90;;;;;;5030914;28;19909;-40
2023/05/21 01:49:07;;;;;;;;;;;15.90;99.90;;;;;;5031094;28;20262;-41
2023/05/21 01:51:33;;;;;;;;;;;15.90;99.90;;;;;;5031106;28;19905;-40
2023/05/21 01:53:59;;;;;;;;;;;15.80;99.90;;;;;;5031186;28;19932;-40
2023/05/21 01:56:24;;;;;;;;;;;15.90;99.90;;;;;;5030742;28;19909;-40
2023/05/21 01:58:50;;;;;;;;;;;15.80;99.90;;;;;;5031518;28;19909;-40
2023/05/21 02:01:16;;;;;;;;;;;15.80;99.90;;;;;;5031048;28;19999;-40
2023/05/21 02:03:41;;;;;;;;;;;15.80;99.90;;;;;;5032372;28;20012;-40
2023/05/21 02:06:07;;;;;;;;;;;15.80;99.90;;;;;;5034356;28;20007;-40
2023/05/21 02:08:32;;;;;;;;;;;15.80;99.90;;;;;;5034748;28;19905;-41
2023/05/21 02:10:58;;;;;;;;;;;15.80;99.90;;;;;;5034679;28;19974;-41
2023/05/21 02:13:23;;;;;;;;;;;15.80;99.90;;;;;;5034911;28;19909;-40
2023/05/21 02:15:50;;;;;;;;;;;15.80;99.90;;;;;;5034280;28;20373;-40
2023/05/21 02:18:17;;;;;;;;;;;15.80;99.90;;;;;;5034293;28;20412;-41
2023/05/21 02:20:42;;;;;;;;;;;15.80;99.90;;;;;;5034506;28;19909;-40
2023/05/21 02:23:08;;;;;;;;;;;15.80;99.90;;;;;;5034368;28;19916;-40
2023/05/21 02:25:34;;;;;;;;;;;15.80;99.90;;;;;;5034365;28;19906;-40
2023/05/21 02:28:01;;;;;;;;;;;15.80;99.90;;;;;;5033780;28;19913;-40
2023/05/21 02:30:26;;;;;;;;;;;15.80;99.90;;;;;;5034323;28;19920;-41
2023/05/21 02:32:52;;;;;;;;;;;15.80;99.90;;;;;;5034323;28;19908;-40
2023/05/21 02:35:18;;;;;;;;;;;15.80;99.90;;;;;;5034361;28;20419;-40
2023/05/21 02:37:43;;;;;;;;;;;15.80;99.90;;;;;;5033728;28;19911;-40
2023/05/21 02:40:09;;;;;;;;;;;15.70;99.90;;;;;;5034210;28;19908;-40
2023/05/21 02:42:36;;;;;;;;;;;15.70;99.90;;;;;;5033770;28;20000;-40
2023/05/21 02:45:02;;;;;;;;;;;15.70;99.90;;;;;;5034526;28;20027;-40
2023/05/21 02:47:27;;;;;;;;;;;15.70;99.90;;;;;;5033478;28;20397;-41
2023/05/21 02:49:53;;;;;;;;;;;15.70;99.90;;;;;;5034001;28;20358;-40
2023/05/21 02:52:22;;;;;;;;;;;15.70;99.90;;;;;;5034380;28;19941;-41
2023/05/21 02:54:48;;;;;;;;;;;15.70;99.90;;;;;;5033936;28;19916;-40
2023/05/21 02:57:13;;;;;;;;;;;15.70;99.90;;;;;;5033169;28;19905;-40
2023/05/21 02:59:39;;;;;;;;;;;15.70;99.90;;;;;;5033754;28;19952;-41
2023/05/21 03:02:06;;;;;;;;;;;15.70;99.90;;;;;;5033589;28;19934;-40
2023/05/21 03:04:32;;;;;;;;;;;15.70;99.90;;;;;;5034015;28;20297;-40
2023/05/21 03:07:00;;;;;;;;;;;15.70;99.90;;;;;;5033443;28;19912;-40
2023/05/21 03:09:26;;;;;;;;;;;15.70;99.90;;;;;;5033529;28;19905;-39
2023/05/21 03:11:52;;;;;;;;;;;15.70;99.90;;;;;;5033435;28;19971;-40
2023/05/21 03:14:17;;;;;;;;;;;15.70;99.90;;;;;;5033158;28;20285;-40
2023/05/21 03:16:43;;;;;;;;;;;15.70;99.90;;;;;;5032911;28;19909;-41
2023/05/21 03:19:10;;;;;;;;;;;15.70;99.90;;;;;;5033451;28;19914;-40
2023/05/21 03:21:36;;;;;;;;;;;15.70;99.90;;;;;;5033269;28;20003;-40
2023/05/21 03:24:02;;;;;;;;;;;15.70;99.90;;;;;;5033178;28;19997;-40
2023/05/21 03:26:28;;;;;;;;;;;15.70;99.90;;;;;;5032721;28;19909;-40
2023/05/21 03:28:54;;;;;;;;;;;15.70;99.90;;;;;;5033255;28;19991;-41
2023/05/21 03:31:20;;;;;;;;;;;15.70;99.90;;;;;;5033141;28;19996;-40
2023/05/21 03:33:46;;;;;;;;;;;15.70;99.90;;;;;;5033188;28;19996;-40
2023/05/21 03:36:11;;;;;;;;;;;15.70;99.90;;;;;;5032580;28;20349;-40
2023/05/21 03:38:37;;;;;;;;;;;15.70;99.90;;;;;;5033066;28;19905;-40
2023/05/21 03:41:02;;;;;;;;;;;15.70;99.90;;;;;;5032948;28;19916;-40
2023/05/21 03:43:28;;;;;;;;;;;15.60;99.90;;;;;;5032695;28;19913;-40
2023/05/21 03:45:54;;;;;;;;;;;15.60;99.90;;;;;;5032581;28;19908;-41
2023/05/21 03:48:19;;;;;;;;;;;15.60;99.90;;;;;;5032716;28;19905;-41
2023/05/21 03:50:45;;;;;;;;;;;15.60;99.90;;;;;;5032836;28;19909;-40
2023/05/21 03:53:11;;;;;;;;;;;15.60;99.90;;;;;;5032750;28;20374;-41
2023/05/21 03:55:37;;;;;;;;;;;15.60;99.90;;;;;;5032654;28;19931;-40
2023/05/21 03:58:02;;;;;;;;;;;15.60;99.90;;;;;;5032200;28;19999;-39
2023/05/21 04:00:28;;;;;;;;;;;15.60;99.90;;;;;;5032604;28;20004;-40
2023/05/21 04:02:53;;;;;;;;;;;15.60;99.90;;;;;;5032415;28;19909;-40
2023/05/21 04:05:19;;;;;;;;;;;15.60;99.90;;;;;;5032528;28;19943;-41
2023/05/21 04:07:45;;;;;;;;;;;15.60;99.90;;;;;;5032015;28;19962;-40
2023/05/21 04:10:11;;;;;;;;;;;15.60;99.90;;;;;;5032340;28;19995;-41
2023/05/21 04:12:36;;;;;;;;;;;15.60;99.90;;;;;;5032288;28;19920;-41
2023/05/21 04:15:02;;;;;;;;;;;15.50;99.90;;;;;;5032562;28;20575;-40
2023/05/21 04:17:28;;;;;;;;;;;15.60;99.90;;;;;;5031723;28;19916;-40
2023/05/21 04:19:53;;;;;;;;;;;15.60;99.90;;;;;;5032274;28;19912;-41
2023/05/21 04:22:20;;;;;;;;;;;15.60;99.90;;;;;;5032018;28;19932;-40
2023/05/21 04:24:45;;;;;;;;;;;15.50;99.90;;;;;;5032085;28;20035;-41
2023/05/21 04:27:12;;;;;;;;;;;15.60;99.90;;;;;;5030944;28;20007;-40
2023/05/21 04:29:41;;;;;;;;;;;15.60;99.90;;;;;;5031780;28;19915;-40
2023/05/21 04:32:07;;;;;;;;;;;15.60;99.90;;;;;;5032059;28;19909;-42
2023/05/21 04:34:32;;;;;;;;;;;15.50;99.90;;;;;;5031993;28;19909;-40
2023/05/21 04:36:59;;;;;;;;;;;15.50;99.90;;;;;;5031456;28;19909;-40
2023/05/21 04:39:24;;;;;;;;;;;15.50;99.90;;;;;;5030588;28;20370;-41
2023/05/21 04:41:53;;;;;;;;;;;15.50;99.90;;;;;;5031780;28;19909;-40
2023/05/21 04:44:19;;;;;;;;;;;15.50;99.90;;;;;;5031831;28;19948;-40
2023/05/21 04:46:44;;;;;;;;;;;15.50;99.90;;;;;;5031309;28;19959;-40
2023/05/21 04:49:10;;;;;;;;;;;15.50;99.90;;;;;;5031760;28;19905;-40
2023/05/21 04:51:36;;;;;;;;;;;15.50;99.90;;;;;;5031751;28;19909;-40
2023/05/21 04:54:02;;;;;;;;;;;15.50;99.90;;;;;;5031650;28;20413;-39
2023/05/21 04:56:28;;;;;;;;;;;15.60;99.90;;;;;;5031189;28;19905;-39
2023/05/21 04:58:54;;;;;;;;;;;15.50;99.90;;;;;;5031644;28;19912;-41
2023/05/21 05:01:22;;;;;;;;;;;15.50;99.90;;;;;;5031732;28;20412;-40
2023/05/21 05:03:48;;;;;;;;;;;15.50;99.90;;;;;;5031425;28;19913;-40
2023/05/21 05:06:13;;;;;;;;;;;15.50;99.90;;;;;;5029686;28;19913;-41
2023/05/21 05:08:39;;;;;;;;;;;15.50;99.90;;;;;;5031483;28;19912;-39
2023/05/21 05:11:04;;;;;;;;;;;15.50;99.90;;;;;;5031548;28;20247;-40
2023/05/21 05:13:30;;;;;;;;;;;15.50;99.90;;;;;;5031302;28;19909;-41
2023/05/21 05:15:56;;;;;;;;;;;15.50;99.90;;;;;;5031071;28;19912;-41
2023/05/21 05:18:21;;;;;;;;;;;15.50;99.90;;;;;;5031353;28;19912;-40
2023/05/21 05:20:47;;;;;;;;;;;15.50;99.90;;;;;;5031337;28;20386;-40
2023/05/21 05:23:12;;;;;;;;;;;15.50;99.90;;;;;;5031192;28;20421;-40
2023/05/21 05:25:38;;;;;;;;;;;15.60;99.90;;;;;;5031332;28;19905;-40
2023/05/21 05:28:03;;;;;;;;;;;15.50;99.90;;;;;;5030821;28;19905;-40
2023/05/21 05:30:29;;;;;;;;;;;15.60;99.90;;;;;;5031344;28;20378;-41
2023/05/21 05:32:55;;;;;;;;;;;15.50;99.90;;;;;;5031253;28;19948;-40
2023/05/21 05:35:20;;;;;;;;;;;15.60;99.90;;;;;;5031217;28;19905;-41
2023/05/21 05:37:46;;;;;;;;;;;15.60;99.90;;;;;;5032559;28;19909;-40
2023/05/21 05:40:11;;;;;;;;;;;15.60;99.90;;;;;;5035270;28;19913;-41
2023/05/21 05:42:37;;;;;;;;;;;15.50;99.90;;;;;;5035000;28;20623;-41
2023/05/21 05:45:03;;;;;;;;;;;15.60;99.90;;;;;;5035259;28;20005;-40
2023/05/21 05:47:28;;;;;;;;;;;15.60;99.90;;;;;;5034684;28;20456;-40
2023/05/21 05:49:54;;;;;;;;;;;15.60;99.90;;;;;;5035090;28;19905;-41
2023/05/21 05:52:19;;;;;;;;;;;15.60;99.90;;;;;;5034925;28;19905;-41
2023/05/21 05:54:45;;;;;;;;;;;15.60;99.90;;;;;;5035018;28;19905;-40
2023/05/21 05:57:11;;;;;;;;;;;15.60;99.90;;;;;;5034455;28;19951;-41
2023/05/21 05:59:36;;;;;;;;;;;15.60;99.90;;;;;;5034904;28;19905;-41
2023/05/21 06:02:02;;;;;;;;;;;15.60;99.90;;;;;;5034770;28;20294;-41
2023/05/21 06:04:28;;;;;;;;;;;15.60;99.90;;;;;;5034770;28;19909;-40
2023/05/21 06:06:56;;;;;;;;;;;15.60;99.90;;;;;;5034200;28;20427;-40
2023/05/21 06:09:22;;;;;;;;;;;15.60;99.90;;;;;;5034714;28;19935;-40
2023/05/21 06:11:48;;;;;;;;;;;15.70;99.90;;;;;;5034736;28;19912;-41
2023/05/21 06:14:13;;;;;;;;;;;15.60;99.90;;;;;;5034652;28;19916;-40
2023/05/21 06:16:39;;;;;;;;;;;15.60;99.90;;;;;;5034137;28;19909;-40
2023/05/21 06:19:04;;;;;;;;;;;15.60;99.90;;;;;;5034406;28;19905;-40
2023/05/21 06:21:30;;;;;;;;;;;15.70;99.90;;;;;;5034428;28;19963;-43
2023/05/21 06:23:55;;;;;;;;;;;15.70;99.90;;;;;;5034321;28;19909;-41
2023/05/21 06:26:21;;;;;;;;;;;15.70;99.90;;;;;;5033871;28;19911;-40
2023/05/21 06:28:48;;;;;;;;;;;15.70;99.90;;;;;;5034395;28;19905;-40
2023/05/21 06:31:13;;;;;;;;;;;15.70;99.90;;;;;;5034346;28;19967;-40
2023/05/21 06:33:39;;;;;;;;;;;15.70;99.90;;;;;;5034146;28;20621;-40
2023/05/21 06:36:05;;;;;;;;;;;15.70;99.90;;;;;;5033710;28;19916;-41
2023/05/21 06:38:30;;;;;;;;;;;15.70;99.90;;;;;;5034188;28;19931;-40
2023/05/21 06:40:57;;;;;;;;;;;15.70;99.90;;;;;;5034183;28;19905;-40
2023/05/21 06:43:23;;;;;;;;;;;15.70;99.90;;;;;;5033853;28;20271;-41
2023/05/21 06:45:48;;;;;;;;;;;15.70;99.90;;;;;;5033801;28;19905;-40
2023/05/21 06:48:15;;;;;;;;;;;15.70;99.90;;;;;;5033898;28;20339;-40
2023/05/21 06:50:41;;;;;;;;;;;15.70;99.90;;;;;;5033763;28;19954;-40
2023/05/21 06:53:07;;;;;;;;;;;15.70;99.90;;;;;;5033979;28;19905;-41
2023/05/21 06:55:32;;;;;;;;;;;15.70;99.90;;;;;;5033806;28;20358;-40
2023/05/21 06:57:58;;;;;;;;;;;15.70;99.90;;;;;;5032104;28;20377;-40
2023/05/21 07:00:24;;;;;;;;;;;15.70;99.90;;;;;;5033818;28;19905;-40
2023/05/21 07:02:49;;;;;;;;;;;15.70;99.90;;;;;;5033696;28;20436;-41
2023/05/21 07:05:15;;;;;;;;;;;15.70;99.90;;;;;;5033571;28;20050;-41
2023/05/21 07:07:40;;;;;;;;;;;15.70;99.90;;;;;;5033132;28;20022;-42
2023/05/21 07:10:07;;;;;;;;;;;15.70;99.90;;;;;;5034059;28;19913;-41
2023/05/21 07:12:32;;;;;;;;;;;15.70;99.90;;;;;;5033525;28;19913;-41
2023/05/21 07:14:58;;;;;;;;;;;15.70;99.90;;;;;;5033514;28;19912;-40
2023/05/21 07:17:23;;;;;;;;;;;15.70;99.90;;;;;;5032909;28;20425;-41
2023/05/21 07:19:49;;;;;;;;;;;15.70;99.90;;;;;;5033506;28;19905;-40
2023/05/21 07:22:14;;;;;;;;;;;15.70;99.90;;;;;;5033326;28;20329;-40
2023/05/21 07:24:40;;;;;;;;;;;15.70;99.90;;;;;;5033426;28;19998;-41
2023/05/21 07:27:05;;;;;;;;;;;15.70;99.90;;;;;;5033186;28;19911;-41
2023/05/21 07:29:34;;;;;;;;;;;15.70;99.90;;;;;;5033362;28;19996;-40
2023/05/21 07:31:59;;;;;;;;;;;15.70;99.90;;;;;;5033103;28;19905;-40
2023/05/21 07:34:25;;;;;;;;;;;15.70;99.90;;;;;;5033214;28;20259;-40
2023/05/21 07:36:51;;;;;;;;;;;15.70;99.90;;;;;;5033197;28;19927;-40
2023/05/21 07:39:16;;;;;;;;;;;15.70;99.90;;;;;;5033133;28;20267;-40
2023/05/21 07:41:42;;;;;;;;;;;15.70;99.90;;;;;;5033039;28;19959;-40
2023/05/21 07:44:07;;;;;;;;;;;15.80;99.90;;;;;;5073649;22;19927;-43
2023/05/21 07:46:33;;;;;;;;;;;15.80;99.90;;;;;;5032344;28;19909;-45
2023/05/21 07:48:59;;;;;;;;;;;15.80;99.90;;;;;;5032938;28;19916;-44
2023/05/21 07:51:25;;;;;;;;;;;15.80;99.90;;;;;;5032869;28;19996;-44
2023/05/21 07:53:50;;;;;;;;;;;15.80;99.90;;;;;;5032761;28;20357;-44
2023/05/21 07:56:16;;;;;;;;;;;15.80;99.90;;;;;;5032239;28;19905;-44
2023/05/21 07:58:44;;;;;;;;;;;15.80;99.90;;;;;;5032690;28;19916;-44
2023/05/21 08:01:10;;;;;;;;;;;15.80;99.90;;;;;;5031518;28;20015;-44
2023/05/21 08:03:36;;;;;;;;;;;15.80;99.90;;;;;;5032718;28;20001;-44
2023/05/21 08:06:01;;;;;;;;;;;15.80;99.90;;;;;;5032108;28;19912;-44
2023/05/21 08:08:27;;;;;;;;;;;15.80;99.90;;;;;;5032383;28;19995;-44
2023/05/21 08:10:52;;;;;;;;;;;15.80;99.90;;;;;;5032441;28;19905;-44
2023/05/21 08:13:18;;;;;;;;;;;15.80;99.90;;;;;;5032345;28;19905;-45
2023/05/21 08:15:43;;;;;;;;;;;15.80;99.90;;;;;;5032053;28;20408;-49
2023/05/21 08:18:09;;;;;;;;;;;15.80;99.90;;;;;;5032244;28;19905;-44
2023/05/21 08:20:34;;;;;;;;;;;15.80;99.90;;;;;;5032239;28;20294;-44
2023/05/21 08:23:00;;;;;;;;;;;15.80;99.90;;;;;;5032069;28;19925;-46
2023/05/21 08:25:26;;;;;;;;;;;15.80;99.90;;;;;;5032183;28;19913;-44
2023/05/21 08:27:51;;;;;;;;;;;15.80;99.90;;;;;;5031638;28;19909;-44
2023/05/21 08:30:17;;;;;;;;;;;15.80;99.90;;;;;;5032013;28;19905;-44
2023/05/21 08:32:42;;;;;;;;;;;15.80;99.90;;;;;;5032028;28;19909;-44
2023/05/21 08:35:08;;;;;;;;;;;15.80;99.90;;;;;;5032084;28;19905;-45
2023/05/21 08:37:33;;;;;;;;;;;15.80;99.90;;;;;;5031505;28;20304;-47
2023/05/21 08:39:59;;;;;;;;;;;15.80;99.90;;;;;;5031976;28;20305;-45
2023/05/21 08:42:35;;;;;;;;;;;15.80;99.90;;;;;;5032040;28;19928;-45
2023/05/21 08:45:01;;;;;;;;;;;15.90;99.90;;;;;;5030514;28;20389;-45
2023/05/21 08:47:30;;;;;;;;;;;15.80;99.90;;;;;;5031316;28;19948;-45
2023/05/21 08:49:57;;;;;;;;;;;15.90;99.90;;;;;;5031887;28;19952;-44
2023/05/21 08:52:25;;;;;;;;;;;15.90;99.90;;;;;;5031655;28;19909;-45
2023/05/21 08:54:51;;;;;;;;;;;15.90;99.90;;;;;;5031646;28;19916;-44
2023/05/21 08:57:17;;;;;;;;;;;15.90;99.90;;;;;;5031127;28;19932;-44
2023/05/21 08:59:44;;;;;;;;;;;15.90;99.90;;;;;;5031919;28;20390;-44
2023/05/21 09:02:12;;;;;;;;;;;15.90;99.90;;;;;;5031598;28;20136;-44
2023/05/21 09:04:41;;;;;;;;;;;15.90;99.90;;;;;;5031808;28;19915;-45
2023/05/21 09:07:08;;;;;;;;;;;15.90;99.90;;;;;;5031052;28;19911;-44
2023/05/21 09:09:38;;;;;;;;;;;15.90;99.90;;;;;;5031579;28;20500;-49
2023/05/21 09:12:04;;;;;;;;;;;15.90;99.90;;;;;;5031035;28;20015;-45
2023/05/21 09:14:30;;;;;;;;;;;15.90;99.90;;;;;;5031409;28;20000;-46
2023/05/21 09:16:55;;;;;;;;;;;16.00;99.90;;;;;;5030882;28;19909;-44
2023/05/21 09:19:21;;;;;;;;;;;16.00;99.90;;;;;;5031443;28;19912;-44
2023/05/21 09:21:49;;;;;;;;;;;16.00;99.90;;;;;;5031470;28;19905;-45
2023/05/21 09:24:16;;;;;;;;;;;16.00;99.90;;;;;;5031283;28;19967;-44
2023/05/21 09:26:42;;;;;;;;;;;16.00;99.90;;;;;;5030852;28;19911;-43
2023/05/21 09:29:07;;;;;;;;;;;16.00;99.90;;;;;;5031167;28;19905;-43
2023/05/21 09:31:33;;;;;;;;;;;16.00;99.90;;;;;;5031372;28;19912;-45
2023/05/21 09:33:58;;;;;;;;;;;16.00;99.90;;;;;;5031245;28;19996;-44
2023/05/21 09:36:24;;;;;;;;;;;16.10;99.90;;;;;;5030823;28;19909;-43
2023/05/21 09:38:50;;;;;;;;;;;16.00;99.90;;;;;;5031326;28;19920;-44
2023/05/21 09:41:16;;;;;;;;;;;16.10;99.90;;;;;;5029949;28;19913;-44
2023/05/21 09:43:43;;;;;;;;;;;16.10;99.90;;;;;;5030987;28;19958;-44
2023/05/21 09:46:08;;;;;;;;;;;16.10;99.90;;;;;;5030676;28;19906;-44
2023/05/21 09:48:35;;;;;;;;;;;16.10;99.90;;;;;;5031489;28;19912;-45
2023/05/21 09:51:31;;;;;;;;;;;16.10;99.90;;;;;;5031120;28;19913;-45
2023/05/21 09:53:59;;;;;;;;;;;16.10;99.90;;;;;;5026511;28;19909;-44
2023/05/21 09:56:30;;;;;;;;;;;16.10;99.90;;;;;;5030659;28;20385;-44
2023/05/21 09:59:00;;;;;;;;;;;16.10;99.90;;;;;;5031419;28;19909;-44
2023/05/21 10:01:27;;;;;;;;;;;16.10;99.90;;;;;;5031235;28;19962;-43
2023/05/21 10:03:54;;;;;;;;;;;16.10;99.90;;;;;;5030888;28;19916;-44
2023/05/21 10:06:21;;;;;;;;;;;16.10;99.90;;;;;;5030404;28;19912;-45
2023/05/21 10:08:47;;;;;;;;;;;16.20;99.90;;;;;;5029744;28;19909;-45
2023/05/21 10:11:14;;;;;;;;;;;16.20;99.90;;;;;;5030975;28;19951;-44
2023/05/21 10:13:42;;;;;;;;;;;16.10;99.90;;;;;;5030831;28;19920;-44
2023/05/21 10:16:08;;;;;;;;;;;16.20;99.90;;;;;;5030442;28;19913;-45
2023/05/21 10:18:35;;;;;;;;;;;16.20;99.90;;;;;;5030859;28;20611;-44
2023/05/21 10:21:01;;;;;;;;;;;16.20;99.90;;;;;;5030824;28;19911;-44
2023/05/21 10:23:27;;;;;;;;;;;16.20;99.90;;;;;;5030746;28;19908;-44
2023/05/21 10:25:54;;;;;;;;;;;16.20;99.90;;;;;;5033740;28;20347;-45
2023/05/21 10:28:21;;;;;;;;;;;16.30;99.90;;;;;;5034265;28;19912;-43
2023/05/21 10:30:47;;;;;;;;;;;16.30;99.90;;;;;;5034412;28;19920;-45
2023/05/21 10:33:15;;;;;;;;;;;16.30;99.90;;;;;;5034156;28;19909;-44
2023/05/21 10:35:41;;;;;;;;;;;16.30;99.90;;;;;;5034136;28;19945;-45
2023/05/21 10:38:07;;;;;;;;;;;16.30;99.90;;;;;;5033914;28;20335;-44
2023/05/21 10:40:34;;;;;;;;;;;16.30;99.90;;;;;;5034144;28;19915;-45
2023/05/21 10:43:06;;;;;;;;;;;16.40;99.90;;;;;;5033877;28;19913;-44
2023/05/21 10:45:34;;;;;;;;;;;16.40;99.90;;;;;;5034001;28;19905;-45
2023/05/21 10:48:09;;;;;;;;;;;16.40;99.90;;;;;;5033515;28;19995;-45
2023/05/21 10:50:44;;;;;;;;;;;16.40;99.90;;;;;;5034016;28;19955;-44
2023/05/21 10:53:15;;;;;;;;;;;16.40;99.90;;;;;;5033944;28;19905;-44
2023/05/21 10:55:59;;;;;;;;;;;16.40;99.90;;;;;;5032592;28;19915;-45
2023/05/21 10:58:39;;;;;;;;;;;16.40;99.90;;;;;;5034115;28;20333;-44
2023/05/21 11:01:05;;;;;;;;;;;16.50;99.90;;;;;;5033947;28;19909;-45
2023/05/21 11:03:32;;;;;;;;;;;16.50;99.90;;;;;;5033639;28;19913;-44
2023/05/21 11:05:58;;;;;;;;;;;16.50;99.90;;;;;;5033258;28;19905;-45
2023/05/21 11:08:25;;;;;;;;;;;16.50;99.90;;;;;;5033521;28;19905;-46
2023/05/21 11:10:56;;;;;;;;;;;16.50;99.90;;;;;;5033432;28;20366;-44
2023/05/21 11:13:22;;;;;;;;;;;16.50;99.90;;;;;;5033514;28;20286;-44
2023/05/21 11:15:57;;;;;;;;;;;16.50;99.90;;;;;;5033317;28;19905;-45
2023/05/21 11:18:42;;;;;;;;;;;16.50;99.90;;;;;;5033378;28;19905;-44
2023/05/21 11:21:09;;;;;;;;;;;16.50;99.90;;;;;;5033116;28;19905;-44
2023/05/21 11:23:50;;;;;;;;;;;16.60;99.90;;;;;;5033249;28;20378;-44
2023/05/21 11:26:15;;;;;;;;;;;16.60;99.90;;;;;;5032885;28;19959;-44
2023/05/21 11:28:41;;;;;;;;;;;16.60;99.90;;;;;;5033378;28;19944;-45
2023/05/21 11:31:23;;;;;;;;;;;16.60;99.90;;;;;;5033308;28;19905;-44
2023/05/21 11:34:07;;;;;;;;;;;16.60;99.90;;;;;;5033006;28;20536;-45
2023/05/21 11:36:33;;;;;;;;;;;16.60;99.90;;;;;;5032380;28;20004;-44
2023/05/21 11:39:12;;;;;;;;;;;16.60;99.90;;;;;;5031800;28;19905;-45
2023/05/21 11:41:52;;;;;;;;;;;16.70;99.90;;;;;;5031728;28;19909;-44
2023/05/21 11:44:20;;;;;;;;;;;16.70;99.90;;;;;;5032848;28;19913;-45
2023/05/21 11:46:47;;;;;;;;;;;16.70;99.90;;;;;;5032595;28;19905;-44
2023/05/21 11:49:12;;;;;;;;;;;16.70;99.90;;;;;;5033003;28;19916;-45
2023/05/21 11:51:39;;;;;;;;;;;16.70;99.90;;;;;;5032767;28;19905;-45
2023/05/21 11:54:07;;;;;;;;;;;16.70;99.90;;;;;;5032766;28;19959;-45
2023/05/21 11:56:35;;;;;;;;;;;16.70;99.90;;;;;;5032114;28;19911;-45
2023/05/21 11:59:01;;;;;;;;;;;16.70;99.90;;;;;;5032798;28;20358;-45
2023/05/21 12:01:26;;;;;;;;;;;16.70;99.90;;;;;;5032626;28;19995;-44
2023/05/21 12:03:52;;;;;;;;;;;16.70;99.90;;;;;;5032381;28;20342;-44
2023/05/21 12:06:19;;;;;;;;;;;16.70;99.90;;;;;;5032069;28;20390;-45
2023/05/21 12:08:50;;;;;;;;;;;16.70;99.90;;;;;;5032517;28;19905;-45
2023/05/21 12:11:15;;;;;;;;;;;16.70;99.90;;;;;;5032711;28;20277;-44
2023/05/21 12:13:41;;;;;;;;;;;16.70;99.90;;;;;;5032348;28;20381;-46
2023/05/21 12:16:07;;;;;;;;;;;16.70;99.90;;;;;;5031919;28;20617;-47
2023/05/21 12:18:32;;;;;;;;;;;16.70;99.90;;;;;;5030979;28;19912;-43
2023/05/21 12:20:59;;;;;;;;;;;16.70;99.90;;;;;;5032355;28;19909;-44
2023/05/21 12:23:24;;;;;;;;;;;16.70;99.90;;;;;;5032202;28;20386;-45
2023/05/21 12:25:51;;;;;;;;;;;16.70;99.90;;;;;;5031866;28;19909;-44
2023/05/21 12:28:16;;;;;;;;;;;16.70;99.90;;;;;;5031983;28;19991;-45
2023/05/21 12:30:42;;;;;;;;;;;16.80;99.90;;;;;;5032268;28;20398;-48
2023/05/21 12:33:07;;;;;;;;;;;16.70;99.90;;;;;;5031939;28;19905;-45
2023/05/21 12:35:33;;;;;;;;;;;16.80;99.90;;;;;;5032002;28;20321;-44
2023/05/21 12:38:02;;;;;;;;;;;16.70;99.90;;;;;;5031545;28;19940;-44
2023/05/21 12:40:35;;;;;;;;;;;16.80;99.90;;;;;;5031890;28;19915;-44
2023/05/21 12:43:01;;;;;;;;;;;16.70;99.90;;;;;;5031639;28;20429;-44
2023/05/21 12:45:27;;;;;;;;;;;16.70;99.90;;;;;;5031825;28;20003;-43
2023/05/21 12:47:54;;;;;;;;;;;16.70;99.90;;;;;;5030692;28;19908;-44
2023/05/21 12:50:20;;;;;;;;;;;16.80;99.90;;;;;;5031845;28;19913;-44
2023/05/21 12:52:46;;;;;;;;;;;16.80;99.90;;;;;;5031557;28;19934;-47
2023/05/21 12:55:15;;;;;;;;;;;16.80;99.90;;;;;;5031802;28;19905;-45
2023/05/21 12:57:42;;;;;;;;;;;16.80;99.90;;;;;;5031167;28;19913;-46
2023/05/21 13:00:11;;;;;;;;;;;16.80;99.90;;;;;;5031702;28;19905;-44
2023/05/21 13:02:40;;;;;;;;;;;16.80;99.90;;;;;;5031463;28;19952;-44
2023/05/21 13:05:10;;;;;;;;;;;16.80;99.90;;;;;;5031554;28;20394;-45
2023/05/21 13:07:38;;;;;;;;;;;16.80;99.90;;;;;;5030008;28;20351;-45
2023/05/21 13:10:04;;;;;;;;;;;16.80;99.90;;;;;;5031495;28;20358;-46
2023/05/21 13:12:31;;;;;;;;;;;16.80;99.90;;;;;;5031486;28;19905;-45
2023/05/21 13:14:57;;;;;;;;;;;16.80;99.90;;;;;;5031781;28;19905;-44
2023/05/21 13:17:23;;;;;;;;;;;16.80;99.90;;;;;;5030946;28;19963;-45
2023/05/21 13:20:11;;;;;;;;;;;16.80;99.90;;;;;;5031486;28;19909;-44
2023/05/21 13:22:42;;;;;;;;;;;16.80;99.90;;;;;;5027775;28;20310;-44
2023/05/21 13:25:11;;;;;;;;;;;16.80;99.90;;;;;;5031388;28;20362;-45
2023/05/21 13:27:36;;;;;;;;;;;16.80;99.90;;;;;;5030849;28;19905;-44
2023/05/21 13:30:02;;;;;;;;;;;16.80;99.90;;;;;;5031366;28;19909;-44
2023/05/21 13:32:28;;;;;;;;;;;16.80;99.90;;;;;;5031073;28;19909;-44
2023/05/21 13:34:53;;;;;;;;;;;16.80;99.90;;;;;;5031345;28;19912;-44
2023/05/21 13:37:19;;;;;;;;;;;16.80;99.90;;;;;;5030838;28;20588;-46
2023/05/21 13:39:47;;;;;;;;;;;16.80;99.90;;;;;;5031278;28;19924;-45
2023/05/21 13:42:13;;;;;;;;;;;16.80;99.90;;;;;;5031026;28;19951;-47
2023/05/21 13:44:38;;;;;;;;;;;16.80;99.90;;;;;;5031736;28;20390;-49
2023/05/21 13:47:04;;;;;;;;;;;16.80;99.90;;;;;;5030544;28;19936;-45
2023/05/21 13:49:30;;;;;;;;;;;16.90;99.90;;;;;;5031204;28;20278;-44
2023/05/21 13:51:56;;;;;;;;;;;16.90;99.90;;;;;;5031148;28;19905;-44
2023/05/21 13:54:23;;;;;;;;;;;16.80;99.90;;;;;;5030963;28;19905;-47
2023/05/21 13:56:48;;;;;;;;;;;16.80;99.90;;;;;;5030551;28;20297;-46
2023/05/21 13:59:14;;;;;;;;;;;16.80;99.90;;;;;;5033555;28;19909;-45
2023/05/21 14:01:39;;;;;;;;;;;16.80;99.90;;;;;;5034797;28;19955;-44
2023/05/21 14:04:05;;;;;;;;;;;16.80;99.90;;;;;;5034700;28;19944;-46
2023/05/21 14:06:32;;;;;;;;;;;16.80;99.90;;;;;;5034370;28;19918;-44
2023/05/21 14:08:58;;;;;;;;;;;16.80;99.90;;;;;;5034827;28;19905;-47
2023/05/21 14:11:23;;;;;;;;;;;16.80;99.90;;;;;;5034756;28;19912;-45
2023/05/21 14:13:49;;;;;;;;;;;16.90;99.90;;;;;;5034614;28;19905;-47
2023/05/21 14:16:14;;;;;;;;;;;16.80;99.90;;;;;;5034062;28;19908;-44